Главная страница
METAR-TAF:

METAR-TAF

Аэропорты :

Sandane, Норвегия

широта: 61-50N, долгота: 006-07E, высота над уровнем моря: 6 м

Текущие метеонаблюдения

Эта сводка был подготовлена 18 часа и 13 минут назад, в 12:50 UTC
Ветер 4 Узел переменных направлений
Температура 11°C
Влажность 76%
Давление 992 hPa
Видимость 10 км и более
небольшая облачность на высоте 2400 фута
Рассеянная облачность на высоте 3200 фута
ливни в окрестностях

METAR: ENSD 221250Z VRB04KT 9999 VCSH FEW024 BKN032 11/07 Q0992 RMK WIND 1138FT VRB03KT

Время: 09:03 (07:03 UTC)


TAF: отсутствует

Метеонаблюдения и прогнозы для более 4000 аэропортов (сводки METAR и TAF).

Имеющиеся станции представлены на карте желтыми и красными точками.

Чтобы увидеть название станции, наведите на нее мышь.

Затем щелкните, чтобы увидеть метеонаблюдения и метеопрогнозы.

Управление картой: чтобы увеличить масштаб, щелкните зеленые кнопки с черным крестиком; чтобы уменьшить масштаб, щелкните зеленую кнопку с тире; для просмотра соседних карт щелкайте зеленые стрелки.


METAR-TAF: